Time;durP1;ratioP1;P1;durP2;ratioP2;P2;SDS_P1;SDS_P2;PMS_P1;PMS_P2;Temp;Humidity;BMP_temperature;BMP_pressure;BME280_temperature;BME280_humidity;BME280_pressure;Samples;Min_cycle;Max_cycle;Signal;HPM_P1;HPM_P2
2022/05/22 00:02:17;;;;;;;7.35;4.32;;;;;;;;;;5108153;27;20543;-44
2022/05/22 00:04:42;;;;;;;9.73;4.65;;;;;;;;;;5115538;27;20049;-49
2022/05/22 00:07:08;;;;;;;5.88;4.30;;;;;;;;;;5108976;27;20050;-44
2022/05/22 00:09:34;;;;;;;5.68;4.00;;;;;;;;;;5106387;27;20081;-43
2022/05/22 00:12:00;;;;;;;5.40;3.78;;;;;;;;;;5117456;27;20049;-48
2022/05/22 00:14:25;;;;;;;7.03;3.58;;;;;;;;;;5116892;27;20056;-45
2022/05/22 00:16:51;;;;;;;6.03;4.13;;;;;;;;;;5116261;27;20184;-44
2022/05/22 00:19:18;;;;;;;5.72;4.90;;;;;;;;;;5114429;27;20036;-43
2022/05/22 00:21:44;;;;;;;6.03;5.05;;;;;;;;;;5108288;27;20055;-42
2022/05/22 00:24:11;;;;;;;6.13;4.03;;;;;;;;;;5117211;27;20432;-41
2022/05/22 00:26:36;;;;;;;10.48;5.18;;;;;;;;;;5102480;27;20127;-43
2022/05/22 00:29:01;;;;;;;8.27;4.30;;;;;;;;;;5108498;27;20611;-46
2022/05/22 00:31:27;;;;;;;5.40;4.82;;;;;;;;;;5102820;27;20605;-44
2022/05/22 00:33:52;;;;;;;4.05;3.65;;;;;;;;;;5105353;27;20504;-44
2022/05/22 00:36:17;;;;;;;5.45;3.80;;;;;;;;;;5103401;27;20040;-43
2022/05/22 00:38:43;;;;;;;7.75;3.83;;;;;;;;;;5104948;27;20539;-43
2022/05/22 00:41:09;;;;;;;14.88;4.03;;;;;;;;;;5109779;27;20077;-43
2022/05/22 00:43:36;;;;;;;6.80;3.47;;;;;;;;;;5114186;27;20070;-45
2022/05/22 00:46:02;;;;;;;4.05;3.17;;;;;;;;;;5114229;27;20047;-41
2022/05/22 00:48:27;;;;;;;10.15;6.03;;;;;;;;;;5112805;27;20675;-44
2022/05/22 00:50:55;;;;;;;5.97;3.47;;;;;;;;;;5117812;27;20051;-45
2022/05/22 00:53:21;;;;;;;6.50;4.25;;;;;;;;;;5102345;27;20071;-46
2022/05/22 00:55:46;;;;;;;6.78;5.10;;;;;;;;;;5110837;27;20160;-42
2022/05/22 00:58:16;;;;;;;20.63;5.57;;;;;;;;;;5114998;27;20043;-45
2022/05/22 01:00:42;;;;;;;5.07;4.47;;;;;;;;;;5115037;27;20047;-45
2022/05/22 01:03:27;;;;;;;7.55;2.80;;;;;;;;;;5106877;27;20043;-47
2022/05/22 01:05:53;;;;;;;5.03;3.42;;;;;;;;;;5116781;27;20046;-46
2022/05/22 01:08:18;;;;;;;4.53;2.70;;;;;;;;;;5114688;27;20111;-44
2022/05/22 01:10:45;;;;;;;3.60;3.08;;;;;;;;;;5116334;27;20551;-43
2022/05/22 01:13:12;;;;;;;3.42;2.78;;;;;;;;;;5114312;27;20093;-45
2022/05/22 01:15:37;;;;;;;7.30;3.53;;;;;;;;;;5116870;27;20100;-44
2022/05/22 01:18:03;;;;;;;15.45;3.70;;;;;;;;;;5114568;27;20544;-42
2022/05/22 01:20:28;;;;;;;8.75;4.18;;;;;;;;;;5118121;27;20043;-42
2022/05/22 01:22:53;;;;;;;4.93;2.92;;;;;;;;;;5115674;27;20043;-45
2022/05/22 01:25:19;;;;;;;9.88;4.40;;;;;;;;;;5115243;27;20039;-44
2022/05/22 01:27:44;;;;;;;8.55;4.85;;;;;;;;;;5114945;27;20047;-45
2022/05/22 01:30:16;;;;;;;4.03;3.03;;;;;;;;;;5116000;27;20551;-44
2022/05/22 01:32:42;;;;;;;5.18;4.68;;;;;;;;;;5114669;27;20043;-41
2022/05/22 01:35:08;;;;;;;5.70;3.97;;;;;;;;;;5117130;27;20048;-41
2022/05/22 01:37:34;;;;;;;6.10;3.70;;;;;;;;;;5113812;27;20048;-40
2022/05/22 01:39:59;;;;;;;6.97;4.40;;;;;;;;;;5116986;27;20031;-44
2022/05/22 01:42:24;;;;;;;7.18;2.92;;;;;;;;;;5114080;27;20031;-45
2022/05/22 01:44:50;;;;;;;7.45;3.38;;;;;;;;;;5117404;27;20051;-45
2022/05/22 01:47:15;;;;;;;9.27;2.15;;;;;;;;;;5113985;27;20051;-45
2022/05/22 01:49:40;;;;;;;2.90;2.60;;;;;;;;;;5116842;27;20104;-46
2022/05/22 01:52:06;;;;;;;12.93;3.47;;;;;;;;;;5119076;27;20047;-45
2022/05/22 01:54:31;;;;;;;5.93;2.80;;;;;;;;;;5117980;27;20055;-48
2022/05/22 01:56:56;;;;;;;17.55;3.63;;;;;;;;;;5116592;27;20051;-44
2022/05/22 01:59:22;;;;;;;8.00;3.28;;;;;;;;;;5118534;27;20050;-48
2022/05/22 02:01:47;;;;;;;2.38;1.60;;;;;;;;;;5121645;27;20138;-45
2022/05/22 02:04:13;;;;;;;15.13;3.05;;;;;;;;;;5116169;27;20736;-43
2022/05/22 02:08:18;;;;;;;5.22;3.22;;;;;;;;;;5098161;27;20109;-39
2022/05/22 02:09:26;;;;;;;17.75;3.88;;;;;;;;;;5110207;28;20503;-46
2022/05/22 02:11:52;;;;;;;6.78;3.30;;;;;;;;;;5115191;28;20139;-43
2022/05/22 02:14:17;;;;;;;7.03;3.13;;;;;;;;;;5118367;28;20092;-46
2022/05/22 02:16:42;;;;;;;9.88;3.03;;;;;;;;;;5112813;28;20732;-44
2022/05/22 02:19:08;;;;;;;5.20;2.95;;;;;;;;;;5114621;28;20222;-44
2022/05/22 02:21:33;;;;;;;9.45;4.30;;;;;;;;;;5116777;28;20523;-43
2022/05/22 02:23:58;;;;;;;9.10;4.30;;;;;;;;;;5117128;28;20571;-45
2022/05/22 02:26:24;;;;;;;3.35;2.70;;;;;;;;;;5113960;28;20441;-46
2022/05/22 02:28:49;;;;;;;3.85;3.15;;;;;;;;;;5106641;27;20067;-43
2022/05/22 02:31:14;;;;;;;3.03;2.72;;;;;;;;;;5103479;27;20732;-43
2022/05/22 02:33:40;;;;;;;4.03;3.13;;;;;;;;;;5109188;27;20100;-42
2022/05/22 02:36:06;;;;;;;4.55;3.25;;;;;;;;;;5110170;28;20043;-46
2022/05/22 02:38:32;;;;;;;4.63;3.55;;;;;;;;;;5107136;27;20051;-46
2022/05/22 02:40:58;;;;;;;6.93;4.10;;;;;;;;;;5108331;27;20047;-44
2022/05/22 02:43:23;;;;;;;3.85;2.78;;;;;;;;;;5115926;27;20136;-45
2022/05/22 02:45:49;;;;;;;4.72;3.33;;;;;;;;;;5106788;28;20050;-42
2022/05/22 02:48:14;;;;;;;3.70;2.78;;;;;;;;;;5112072;27;20636;-43
2022/05/22 02:50:41;;;;;;;4.88;2.53;;;;;;;;;;5110123;27;20412;-46
2022/05/22 02:53:07;;;;;;;4.38;3.70;;;;;;;;;;5114851;27;20129;-47
2022/05/22 02:55:32;;;;;;;3.70;3.10;;;;;;;;;;5112112;27;20050;-43
2022/05/22 02:57:58;;;;;;;5.63;3.08;;;;;;;;;;5112833;27;20048;-47
2022/05/22 03:00:25;;;;;;;10.32;3.60;;;;;;;;;;5120044;27;20567;-44
2022/05/22 03:02:51;;;;;;;6.45;3.25;;;;;;;;;;5115656;27;20510;-45
2022/05/22 03:05:16;;;;;;;8.93;4.53;;;;;;;;;;5114245;27;20047;-45
2022/05/22 03:07:41;;;;;;;3.30;3.00;;;;;;;;;;5115592;27;20129;-45
2022/05/22 03:10:08;;;;;;;4.38;3.97;;;;;;;;;;5119177;27;20793;-43
2022/05/22 03:12:35;;;;;;;10.30;3.55;;;;;;;;;;5121256;27;20049;-47
2022/05/22 03:15:00;;;;;;;6.55;2.83;;;;;;;;;;5123465;27;20079;-48
2022/05/22 03:17:26;;;;;;;4.45;3.08;;;;;;;;;;5108403;27;20561;-41
2022/05/22 03:19:52;;;;;;;4.97;2.92;;;;;;;;;;5106697;27;20085;-41
2022/05/22 03:22:17;;;;;;;5.38;4.05;;;;;;;;;;5120879;27;20463;-41
2022/05/22 03:24:43;;;;;;;15.75;4.30;;;;;;;;;;5109307;27;20512;-41
2022/05/22 03:27:10;;;;;;;4.07;2.58;;;;;;;;;;5110577;27;20051;-46
2022/05/22 03:29:36;;;;;;;3.08;2.42;;;;;;;;;;5115844;27;20042;-46
2022/05/22 03:32:02;;;;;;;7.10;2.78;;;;;;;;;;5111811;27;20085;-46
2022/05/22 03:34:28;;;;;;;4.28;3.45;;;;;;;;;;5118023;27;20579;-44
2022/05/22 03:36:53;;;;;;;4.60;2.58;;;;;;;;;;5108592;27;20127;-43
2022/05/22 03:39:19;;;;;;;10.02;4.63;;;;;;;;;;5107258;27;20040;-43
2022/05/22 03:41:44;;;;;;;3.95;3.08;;;;;;;;;;5114736;27;20518;-43
2022/05/22 03:44:09;;;;;;;4.68;3.00;;;;;;;;;;5121878;27;20130;-46
2022/05/22 03:46:35;;;;;;;3.85;3.05;;;;;;;;;;5118848;27;20058;-45
2022/05/22 03:49:00;;;;;;;3.70;2.13;;;;;;;;;;5120931;27;20134;-46
2022/05/22 03:51:26;;;;;;;3.33;2.35;;;;;;;;;;5118520;27;20073;-48
2022/05/22 03:53:51;;;;;;;5.38;2.53;;;;;;;;;;5118796;27;20058;-47
2022/05/22 03:56:17;;;;;;;4.72;2.42;;;;;;;;;;5121501;27;20047;-44
2022/05/22 03:58:43;;;;;;;3.38;2.80;;;;;;;;;;5114656;27;20062;-45
2022/05/22 04:01:09;;;;;;;5.63;2.85;;;;;;;;;;5103734;27;20059;-42
2022/05/22 04:03:34;;;;;;;4.88;3.67;;;;;;;;;;5111928;27;20040;-44
2022/05/22 04:06:04;;;;;;;5.70;3.50;;;;;;;;;;5102963;27;20508;-40
2022/05/22 04:08:30;;;;;;;8.65;4.03;;;;;;;;;;5108873;27;20055;-44
2022/05/22 04:10:56;;;;;;;4.07;3.05;;;;;;;;;;5115730;27;20135;-48
2022/05/22 04:13:21;;;;;;;5.85;3.50;;;;;;;;;;5113685;27;20125;-44
2022/05/22 04:15:46;;;;;;;4.50;3.08;;;;;;;;;;5119881;27;20740;-46
2022/05/22 04:18:12;;;;;;;6.80;4.07;;;;;;;;;;5118418;27;20043;-46
2022/05/22 04:20:37;;;;;;;5.90;3.95;;;;;;;;;;5120578;27;20115;-42
2022/05/22 04:25:51;;;;;;;11.27;3.30;;;;;;;;;;5112633;27;20053;-46
2022/05/22 04:28:17;;;;;;;5.75;3.63;;;;;;;;;;5123740;27;20131;-47
2022/05/22 04:30:42;;;;;;;3.35;2.78;;;;;;;;;;5119700;27;20128;-43
2022/05/22 04:33:07;;;;;;;8.35;3.90;;;;;;;;;;5120816;27;20407;-46
2022/05/22 04:35:32;;;;;;;9.18;3.88;;;;;;;;;;5121527;27;20043;-47
2022/05/22 04:38:02;;;;;;;4.03;3.38;;;;;;;;;;5113555;27;20480;-47
2022/05/22 04:40:27;;;;;;;3.92;2.97;;;;;;;;;;5119217;27;20059;-44
2022/05/22 04:42:52;;;;;;;3.55;2.88;;;;;;;;;;5119431;27;20066;-43
2022/05/22 04:45:18;;;;;;;3.20;2.58;;;;;;;;;;5117139;27;20149;-42
2022/05/22 04:47:43;;;;;;;5.38;3.22;;;;;;;;;;5103949;27;20043;-43
2022/05/22 04:50:10;;;;;;;7.68;3.35;;;;;;;;;;5108657;27;20039;-46
2022/05/22 04:52:35;;;;;;;8.25;5.13;;;;;;;;;;5116640;27;20051;-45
2022/05/22 04:55:00;;;;;;;8.82;3.58;;;;;;;;;;5121294;27;20459;-47
2022/05/22 04:57:26;;;;;;;3.83;3.22;;;;;;;;;;5118995;27;20053;-44
2022/05/22 04:59:51;;;;;;;5.22;3.05;;;;;;;;;;5113953;27;20036;-44
2022/05/22 05:02:16;;;;;;;4.38;3.00;;;;;;;;;;5116262;27;20519;-44
2022/05/22 05:04:42;;;;;;;6.55;4.22;;;;;;;;;;5119587;27;20047;-46
2022/05/22 05:07:08;;;;;;;7.00;3.95;;;;;;;;;;5113527;27;20052;-44
2022/05/22 05:09:34;;;;;;;10.27;4.40;;;;;;;;;;5104669;27;20047;-45
2022/05/22 05:12:00;;;;;;;3.65;2.72;;;;;;;;;;5110592;27;20058;-41
2022/05/22 05:14:26;;;;;;;2.38;1.98;;;;;;;;;;5116736;27;20545;-44
2022/05/22 05:16:51;;;;;;;3.22;2.25;;;;;;;;;;5120914;27;20035;-44
2022/05/22 05:19:16;;;;;;;2.92;2.22;;;;;;;;;;5119320;27;20410;-45
2022/05/22 05:21:42;;;;;;;2.22;1.88;;;;;;;;;;5119874;27;20110;-47
2022/05/22 05:24:07;;;;;;;3.60;2.22;;;;;;;;;;5117860;27;20073;-45
2022/05/22 05:26:34;;;;;;;3.75;2.53;;;;;;;;;;5109743;27;20043;-42
2022/05/22 05:29:00;;;;;;;3.15;2.20;;;;;;;;;;5119789;27;20503;-44
2022/05/22 05:31:25;;;;;;;3.78;2.42;;;;;;;;;;5117781;27;20120;-45
2022/05/22 05:33:51;;;;;;;5.90;2.42;;;;;;;;;;5114842;27;20043;-45
2022/05/22 05:36:16;;;;;;;5.53;1.98;;;;;;;;;;5117079;27;20098;-45
2022/05/22 05:38:41;;;;;;;5.40;2.80;;;;;;;;;;5119916;27;20433;-45
2022/05/22 05:41:07;;;;;;;4.15;2.55;;;;;;;;;;5117452;27;20035;-43
2022/05/22 05:43:33;;;;;;;4.10;2.05;;;;;;;;;;5109106;27;20118;-44
2022/05/22 05:45:58;;;;;;;4.57;2.50;;;;;;;;;;5113608;27;20543;-45
2022/05/22 05:48:23;;;;;;;5.00;2.67;;;;;;;;;;5110034;27;20043;-41
2022/05/22 05:50:49;;;;;;;3.47;2.65;;;;;;;;;;5122172;27;20229;-43
2022/05/22 05:53:14;;;;;;;7.55;3.92;;;;;;;;;;5119745;27;20032;-46
2022/05/22 05:55:39;;;;;;;3.55;3.03;;;;;;;;;;5112217;27;20059;-44
2022/05/22 05:58:05;;;;;;;5.57;4.32;;;;;;;;;;5107301;27;20808;-46
2022/05/22 06:00:30;;;;;;;22.50;7.07;;;;;;;;;;5115985;27;20407;-47
2022/05/22 06:02:56;;;;;;;11.45;3.22;;;;;;;;;;5116604;27;20051;-51
2022/05/22 06:05:21;;;;;;;16.08;3.88;;;;;;;;;;5112914;27;20043;-46
2022/05/22 06:07:51;;;;;;;5.65;3.85;;;;;;;;;;5101720;28;20039;-44
2022/05/22 06:10:17;;;;;;;587.47;150.57;;;;;;;;;;5112255;27;20059;-44
2022/05/22 06:12:43;;;;;;;302.45;72.35;;;;;;;;;;5110961;28;20054;-46
2022/05/22 06:15:08;;;;;;;44.65;10.90;;;;;;;;;;5115786;28;20112;-45
2022/05/22 06:17:35;;;;;;;6.68;3.15;;;;;;;;;;5110699;28;20043;-47
2022/05/22 06:20:03;;;;;;;9.18;2.75;;;;;;;;;;5097705;28;20099;-47
2022/05/22 06:22:28;;;;;;;41.40;6.97;;;;;;;;;;5120206;27;20543;-44
2022/05/22 06:24:54;;;;;;;16.30;5.72;;;;;;;;;;5121752;27;20066;-44
2022/05/22 06:27:20;;;;;;;13.68;5.22;;;;;;;;;;5121106;27;20051;-43
2022/05/22 06:29:46;;;;;;;27.77;3.67;;;;;;;;;;5119258;27;20043;-47
2022/05/22 06:32:13;;;;;;;7.55;3.53;;;;;;;;;;5124554;27;20061;-44
2022/05/22 06:34:41;;;;;;;632.38;249.77;;;;;;;;;;5113274;27;20047;-43
2022/05/22 06:37:07;;;;;;;100.75;36.03;;;;;;;;;;5120762;27;20047;-48
2022/05/22 06:39:49;;;;;;;47.55;13.18;;;;;;;;;;5114366;27;20055;-45
2022/05/22 06:42:15;;;;;;;14.45;11.25;;;;;;;;;;5116501;27;20098;-45
2022/05/22 06:44:41;;;;;;;39.72;13.02;;;;;;;;;;5099120;27;20073;-46
2022/05/22 06:47:07;;;;;;;18.50;9.65;;;;;;;;;;5118446;27;20619;-49
2022/05/22 06:49:32;;;;;;;11.45;6.57;;;;;;;;;;5118799;27;20066;-51
2022/05/22 06:51:58;;;;;;;8.32;7.22;;;;;;;;;;5121294;27;20050;-50
2022/05/22 06:54:23;;;;;;;11.63;9.13;;;;;;;;;;5120220;27;20101;-48
2022/05/22 06:56:49;;;;;;;77.57;69.38;;;;;;;;;;5108704;27;20452;-45
2022/05/22 06:59:14;;;;;;;126.40;103.57;;;;;;;;;;5119492;27;20140;-45
2022/05/22 07:01:39;;;;;;;107.95;96.32;;;;;;;;;;5121146;27;20042;-49
2022/05/22 07:04:05;;;;;;;102.65;81.40;;;;;;;;;;5114426;27;20135;-51
2022/05/22 07:06:30;;;;;;;133.07;99.35;;;;;;;;;;5115896;27;20051;-49
2022/05/22 07:08:55;;;;;;;118.35;86.82;;;;;;;;;;5119905;27;20043;-43
2022/05/22 07:11:39;;;;;;;114.28;96.05;;;;;;;;;;5118616;27;20096;-47
2022/05/22 07:14:08;;;;;;;112.07;88.63;;;;;;;;;;5114526;27;20052;-49
2022/05/22 07:16:34;;;;;;;87.75;78.75;;;;;;;;;;5113774;27;20066;-47
2022/05/22 07:19:00;;;;;;;84.50;67.95;;;;;;;;;;5123030;27;20078;-48
2022/05/22 07:21:25;;;;;;;61.35;50.22;;;;;;;;;;5120236;27;20352;-48
2022/05/22 07:23:51;;;;;;;58.78;53.08;;;;;;;;;;5122014;27;20101;-52
2022/05/22 07:26:19;;;;;;;55.10;44.22;;;;;;;;;;5122555;27;20043;-53
2022/05/22 07:28:44;;;;;;;46.50;38.42;;;;;;;;;;5120304;27;20047;-54
2022/05/22 07:31:17;;;;;;;70.38;55.67;;;;;;;;;;5119235;27;20380;-53
2022/05/22 07:33:42;;;;;;;86.90;64.10;;;;;;;;;;5119886;27;20036;-53
2022/05/22 07:36:07;;;;;;;76.25;56.17;;;;;;;;;;5122537;27;20039;-53
2022/05/22 07:38:32;;;;;;;69.15;49.90;;;;;;;;;;5112919;27;20038;-52
2022/05/22 07:40:58;;;;;;;38.67;31.27;;;;;;;;;;5120724;27;20499;-50
2022/05/22 07:43:23;;;;;;;53.95;37.00;;;;;;;;;;5119858;27;20082;-53
2022/05/22 07:45:49;;;;;;;51.42;31.92;;;;;;;;;;5119702;27;20046;-51
2022/05/22 07:48:15;;;;;;;32.05;28.85;;;;;;;;;;5115484;27;20385;-50
2022/05/22 07:50:41;;;;;;;36.05;24.98;;;;;;;;;;5122723;27;20058;-49
2022/05/22 07:53:06;;;;;;;19.20;16.00;;;;;;;;;;5119338;27;20040;-53
2022/05/22 07:55:32;;;;;;;16.92;12.27;;;;;;;;;;5116028;27;20047;-46
2022/05/22 07:57:57;;;;;;;14.95;9.82;;;;;;;;;;5112591;27;20451;-50
2022/05/22 08:00:22;;;;;;;10.00;8.50;;;;;;;;;;5111478;27;20076;-52
2022/05/22 08:02:48;;;;;;;15.25;9.90;;;;;;;;;;5105159;27;20389;-53
2022/05/22 08:05:15;;;;;;;13.38;11.00;;;;;;;;;;5110853;27;20726;-52
2022/05/22 08:07:40;;;;;;;13.23;11.80;;;;;;;;;;5111203;27;20031;-50
2022/05/22 08:10:06;;;;;;;11.85;8.48;;;;;;;;;;5120876;27;20043;-52
2022/05/22 08:12:39;;;;;;;17.08;6.45;;;;;;;;;;5115741;27;20032;-45
2022/05/22 08:15:04;;;;;;;21.73;8.73;;;;;;;;;;5117766;27;20043;-47
2022/05/22 08:17:35;;;;;;;13.88;8.13;;;;;;;;;;5121986;27;20066;-48
2022/05/22 08:20:02;;;;;;;21.67;7.60;;;;;;;;;;5121514;27;20047;-48
2022/05/22 08:22:27;;;;;;;8.23;7.35;;;;;;;;;;5117501;27;20043;-48
2022/05/22 08:24:53;;;;;;;16.85;6.95;;;;;;;;;;5119185;27;20143;-48
2022/05/22 08:27:18;;;;;;;7.90;5.63;;;;;;;;;;5120482;27;20043;-47
2022/05/22 08:29:44;;;;;;;12.63;7.70;;;;;;;;;;5120138;27;20047;-50
2022/05/22 08:32:09;;;;;;;5.88;4.97;;;;;;;;;;5113733;27;20243;-50
2022/05/22 08:34:34;;;;;;;17.00;7.57;;;;;;;;;;5117504;27;20514;-51
2022/05/22 08:36:59;;;;;;;8.13;5.38;;;;;;;;;;5115978;27;20031;-46
2022/05/22 08:39:25;;;;;;;7.13;5.22;;;;;;;;;;5110833;27;20043;-51
2022/05/22 08:41:51;;;;;;;11.23;3.75;;;;;;;;;;5118391;27;20036;-44
2022/05/22 08:44:24;;;;;;;5.53;4.18;;;;;;;;;;5122379;27;20083;-43
2022/05/22 08:46:58;;;;;;;5.35;4.30;;;;;;;;;;5115629;27;20067;-52
2022/05/22 08:49:26;;;;;;;6.53;4.22;;;;;;;;;;5110365;27;20516;-51
2022/05/22 08:51:55;;;;;;;6.70;4.13;;;;;;;;;;5112252;27;20137;-53
2022/05/22 08:54:26;;;;;;;23.63;14.93;;;;;;;;;;5111086;27;20043;-50
2022/05/22 08:59:39;;;;;;;13.18;3.60;;;;;;;;;;5119275;27;20093;-53
2022/05/22 09:02:04;;;;;;;9.07;3.80;;;;;;;;;;5119685;27;20085;-50
2022/05/22 09:04:35;;;;;;;6.90;4.70;;;;;;;;;;5117602;27;20492;-52
2022/05/22 09:07:00;;;;;;;;;;;;;;;;;;5112181;27;20040;-49
2022/05/22 09:09:28;;;;;;;10.77;3.60;;;;;;;;;;5118500;27;19938;-49
2022/05/22 09:12:23;;;;;;;9.68;3.17;;;;;;;;;;5107790;27;20051;-49
2022/05/22 09:15:01;;;;;;;9.35;3.38;;;;;;;;;;5032236;27;20060;-53
2022/05/22 09:17:38;;;;;;;7.80;3.30;;;;;;;;;;5106252;27;20043;-53
2022/05/22 09:20:09;;;;;;;4.95;4.15;;;;;;;;;;5121095;27;20122;-49
2022/05/22 09:22:38;;;;;;;13.32;2.42;;;;;;;;;;5119437;27;20047;-54
2022/05/22 09:25:09;;;;;;;4.28;2.35;;;;;;;;;;5111843;27;20066;-54
2022/05/22 09:27:34;;;;;;;10.93;2.05;;;;;;;;;;5118343;27;20577;-53
2022/05/22 09:30:05;;;;;;;8.50;2.38;;;;;;;;;;5118970;27;20065;-49
2022/05/22 09:32:30;;;;;;;;;;;;;;;;;;5120756;27;20040;-52
2022/05/22 09:34:55;;;;;;;10.68;2.72;;;;;;;;;;5116660;27;20414;-49
2022/05/22 09:37:39;;;;;;;6.22;2.42;;;;;;;;;;5120820;27;20061;-51
2022/05/22 09:40:19;;;;;;;2.00;1.35;;;;;;;;;;5120375;27;20042;-49
2022/05/22 09:42:44;;;;;;;4.57;3.70;;;;;;;;;;5117489;27;20509;-50
2022/05/22 09:45:26;;;;;;;12.02;3.53;;;;;;;;;;5117850;27;20095;-49
2022/05/22 09:47:58;;;;;;;8.38;2.60;;;;;;;;;;5119194;27;20047;-51
2022/05/22 09:50:29;;;;;;;13.10;2.75;;;;;;;;;;5121637;27;20512;-54
2022/05/22 09:53:04;;;;;;;3.97;3.03;;;;;;;;;;5116776;27;20042;-52
2022/05/22 09:55:38;;;;;;;7.05;2.80;;;;;;;;;;5112105;27;20035;-52
2022/05/22 09:58:18;;;;;;;2.63;2.03;;;;;;;;;;5114644;27;20056;-55
2022/05/22 10:01:00;;;;;;;2.03;1.58;;;;;;;;;;5111866;27;20061;-52
2022/05/22 10:03:36;;;;;;;13.10;1.50;;;;;;;;;;5112102;27;20118;-51
2022/05/22 10:06:12;;;;;;;9.55;3.35;;;;;;;;;;5100713;28;20051;-49
2022/05/22 10:08:56;;;;;;;5.90;2.10;;;;;;;;;;5108661;27;20040;-51
2022/05/22 10:11:30;;;;;;;4.13;1.95;;;;;;;;;;5111134;28;20064;-47
2022/05/22 10:14:22;;;;;;;2.45;1.67;;;;;;;;;;5114331;28;20948;-50
2022/05/22 10:16:55;;;;;;;5.85;3.30;;;;;;;;;;5092378;28;20072;-47
2022/05/22 10:19:27;;;;;;;2.63;1.58;;;;;;;;;;5115827;28;20035;-52
2022/05/22 10:22:01;;;;;;;5.43;2.28;;;;;;;;;;5110229;27;20434;-49
2022/05/22 10:24:30;;;;;;;6.45;2.17;;;;;;;;;;5111077;28;20100;-54
2022/05/22 10:27:14;;;;;;;5.05;2.25;;;;;;;;;;5115333;28;20043;-50
2022/05/22 10:29:39;;;;;;;5.10;2.22;;;;;;;;;;5115673;28;20050;-52
2022/05/22 10:32:10;;;;;;;2.70;1.75;;;;;;;;;;5117070;28;20039;-47
2022/05/22 10:34:51;;;;;;;7.90;1.95;;;;;;;;;;5118927;28;20134;-47
2022/05/22 10:37:25;;;;;;;3.63;2.10;;;;;;;;;;5118421;28;20035;-47
2022/05/22 10:39:50;;;;;;;7.45;2.67;;;;;;;;;;5113644;28;20146;-50
2022/05/22 10:45:03;;;;;;;1.80;1.48;;;;;;;;;;5108965;28;20189;-51
2022/05/22 10:47:31;;;;;;;11.02;3.60;;;;;;;;;;5104868;28;20054;-50
2022/05/22 10:49:58;;;;;;;2.25;1.67;;;;;;;;;;5114199;28;20662;-51
2022/05/22 10:52:32;;;;;;;3.40;1.95;;;;;;;;;;5115110;28;20048;-45
2022/05/22 10:54:58;;;;;;;3.20;1.45;;;;;;;;;;5113685;27;20059;-49
2022/05/22 10:57:25;;;;;;;5.82;2.88;;;;;;;;;;5095623;28;20043;-46
2022/05/22 10:59:51;;;;;;;4.70;1.67;;;;;;;;;;5115794;28;20035;-46
2022/05/22 11:02:27;;;;;;;5.65;1.63;;;;;;;;;;5117529;28;20039;-45
2022/05/22 11:04:54;;;;;;;3.22;1.95;;;;;;;;;;5099334;28;20047;-50
2022/05/22 11:07:33;;;;;;;3.05;2.72;;;;;;;;;;5117250;28;20078;-50
2022/05/22 11:10:07;;;;;;;4.47;3.45;;;;;;;;;;5111208;27;20520;-51
2022/05/22 11:12:32;;;;;;;4.00;2.35;;;;;;;;;;5120187;27;20044;-48
2022/05/22 11:15:04;;;;;;;2.47;1.88;;;;;;;;;;5121474;27;20059;-50
2022/05/22 11:17:30;;;;;;;5.30;1.95;;;;;;;;;;5113655;27;20772;-50
2022/05/22 11:19:56;;;;;;;3.22;1.77;;;;;;;;;;5122003;27;20050;-46
2022/05/22 11:22:31;;;;;;;4.80;2.55;;;;;;;;;;5122022;27;20124;-49
2022/05/22 11:25:03;;;;;;;3.17;1.05;;;;;;;;;;5106526;27;20050;-49
2022/05/22 11:27:46;;;;;;;8.23;2.45;;;;;;;;;;5120315;27;20130;-47
2022/05/22 11:30:30;;;;;;;3.13;1.90;;;;;;;;;;5117284;27;20123;-51
2022/05/22 11:32:56;;;;;;;7.60;1.50;;;;;;;;;;5112858;27;20145;-47
2022/05/22 11:35:44;;;;;;;2.92;1.50;;;;;;;;;;5117270;27;20726;-48
2022/05/22 11:38:34;;;;;;;2.30;1.30;;;;;;;;;;5113765;27;20108;-47
2022/05/22 11:41:05;;;;;;;2.73;1.63;;;;;;;;;;5113999;27;20059;-51
2022/05/22 11:43:33;;;;;;;3.83;1.83;;;;;;;;;;5111765;27;20046;-49
2022/05/22 11:46:09;;;;;;;5.78;1.67;;;;;;;;;;5106635;27;20051;-49
2022/05/22 11:48:41;;;;;;;5.93;1.98;;;;;;;;;;5113073;27;20047;-46
2022/05/22 11:51:06;;;;;;;10.65;3.33;;;;;;;;;;5117430;27;20380;-46
2022/05/22 11:53:35;;;;;;;5.65;2.20;;;;;;;;;;5117593;27;20043;-48
2022/05/22 11:56:00;;;;;;;3.63;1.50;;;;;;;;;;5115891;27;20036;-49
2022/05/22 11:58:34;;;;;;;1.80;0.93;;;;;;;;;;5120014;27;20056;-49
2022/05/22 12:01:11;;;;;;;1.70;1.02;;;;;;;;;;5119328;27;20050;-48
2022/05/22 12:03:55;;;;;;;2.28;1.63;;;;;;;;;;5117597;27;20039;-48
2022/05/22 12:06:23;;;;;;;6.18;2.72;;;;;;;;;;5122707;27;20050;-49
2022/05/22 12:09:01;;;;;;;4.85;2.33;;;;;;;;;;5122760;27;20480;-49
2022/05/22 12:11:26;;;;;;;3.20;1.98;;;;;;;;;;5115365;27;20138;-48
2022/05/22 12:13:57;;;;;;;5.25;1.98;;;;;;;;;;5109318;27;20139;-49
2022/05/22 12:16:31;;;;;;;2.22;1.27;;;;;;;;;;5118746;27;20039;-45
2022/05/22 12:19:09;;;;;;;4.38;2.92;;;;;;;;;;5121616;27;20039;-44
2022/05/22 12:21:34;;;;;;;1.73;1.35;;;;;;;;;;5110623;27;20038;-47
2022/05/22 12:24:19;;;;;;;3.72;1.25;;;;;;;;;;5113521;27;20047;-46
2022/05/22 12:26:44;;;;;;;3.90;2.00;;;;;;;;;;5117010;27;20126;-48
2022/05/22 12:29:28;;;;;;;1.45;0.88;;;;;;;;;;5114376;27;20047;-43
2022/05/22 12:31:58;;;;;;;2.67;1.13;;;;;;;;;;5117739;27;20157;-46
2022/05/22 12:34:49;;;;;;;1.23;0.95;;;;;;;;;;5118806;27;20051;-49
2022/05/22 12:37:30;;;;;;;2.05;1.60;;;;;;;;;;5109855;27;20043;-47
2022/05/22 12:40:15;;;;;;;2.17;1.15;;;;;;;;;;5115560;27;20043;-43
2022/05/22 12:42:44;;;;;;;2.30;1.48;;;;;;;;;;5116045;27;20127;-49
2022/05/22 12:45:10;;;;;;;2.13;1.20;;;;;;;;;;5109894;27;20123;-44
2022/05/22 12:47:46;;;;;;;2.15;1.33;;;;;;;;;;5116862;27;20503;-45
2022/05/22 12:50:12;;;;;;;3.60;2.13;;;;;;;;;;5121310;27;20047;-45
2022/05/22 12:52:39;;;;;;;1.70;1.45;;;;;;;;;;5116819;27;20035;-48
2022/05/22 12:55:23;;;;;;;2.38;1.10;;;;;;;;;;5122259;27;20047;-50
2022/05/22 12:57:56;;;;;;;1.65;1.00;;;;;;;;;;5120677;27;20453;-49
2022/05/22 13:00:30;;;;;;;2.35;1.60;;;;;;;;;;5114093;27;20060;-47
2022/05/22 13:03:06;;;;;;;1.40;1.00;;;;;;;;;;5120113;27;20077;-42
2022/05/22 13:05:33;;;;;;;2.75;0.95;;;;;;;;;;5121457;27;20047;-46
2022/05/22 13:07:58;;;;;;;2.38;1.20;;;;;;;;;;5121333;27;20034;-48
2022/05/22 13:10:34;;;;;;;2.20;1.40;;;;;;;;;;5118252;27;20043;-44
2022/05/22 13:13:07;;;;;;;1.85;0.85;;;;;;;;;;5118638;27;20496;-47
2022/05/22 13:15:33;;;;;;;3.60;1.30;;;;;;;;;;5117641;27;20082;-48
2022/05/22 13:18:11;;;;;;;2.60;1.60;;;;;;;;;;5118351;27;20062;-47
2022/05/22 13:20:36;;;;;;;1.55;1.05;;;;;;;;;;5120938;27;20039;-47
2022/05/22 13:23:06;;;;;;;2.30;1.00;;;;;;;;;;5119350;27;20541;-44
2022/05/22 13:25:43;;;;;;;1.50;1.20;;;;;;;;;;5117683;27;20261;-45
2022/05/22 13:28:28;;;;;;;1.92;1.08;;;;;;;;;;5120385;27;20126;-47
2022/05/22 13:30:57;;;;;;;4.70;1.75;;;;;;;;;;5115795;27;20099;-46
2022/05/22 13:33:24;;;;;;;1.65;0.85;;;;;;;;;;5117359;27;20488;-47
2022/05/22 13:35:54;;;;;;;1.95;0.80;;;;;;;;;;5119222;27;20633;-50
2022/05/22 13:38:20;;;;;;;;;;;;;;;;;;5119401;27;20494;-43
2022/05/22 13:40:45;;;;;;;2.33;1.40;;;;;;;;;;5117923;27;19920;-50
2022/05/22 13:43:13;;;;;;;1.15;0.70;;;;;;;;;;5117643;27;20078;-50
2022/05/22 13:45:38;;;;;;;3.38;1.25;;;;;;;;;;5118312;27;20035;-46
2022/05/22 13:48:22;;;;;;;11.27;1.65;;;;;;;;;;5116840;27;20042;-46
2022/05/22 13:53:54;;;;;;;1.13;0.57;;;;;;;;;;5114928;27;20088;-44
2022/05/22 13:56:22;;;;;;;;;;;;;;;;;;5110473;27;20047;-49
2022/05/22 13:58:49;;;;;;;8.65;1.52;;;;;;;;;;5117224;27;19941;-53
2022/05/22 14:01:16;;;;;;;2.13;1.60;;;;;;;;;;5118846;27;20133;-49
2022/05/22 14:03:42;;;;;;;1.77;1.00;;;;;;;;;;5095041;28;20104;-49
2022/05/22 14:06:08;;;;;;;3.35;0.98;;;;;;;;;;5115917;27;20055;-49
2022/05/22 14:08:34;;;;;;;1.77;0.93;;;;;;;;;;5117160;27;20035;-49
2022/05/22 14:11:15;;;;;;;2.53;1.40;;;;;;;;;;5117049;27;20069;-45
2022/05/22 14:13:50;;;;;;;1.05;0.77;;;;;;;;;;5111353;28;20180;-48
2022/05/22 14:16:20;;;;;;;5.43;1.45;;;;;;;;;;5113783;28;20047;-49
2022/05/22 14:18:56;;;;;;;2.45;1.45;;;;;;;;;;5118434;27;20035;-48
2022/05/22 14:21:21;;;;;;;2.83;1.33;;;;;;;;;;5104025;28;20113;-50
2022/05/22 14:26:31;;;;;;;3.63;2.10;;;;;;;;;;5113683;28;20091;-50
2022/05/22 14:28:57;;;;;;;7.68;1.55;;;;;;;;;;5119265;28;20054;-49
2022/05/22 14:31:26;;;;;;;3.47;1.95;;;;;;;;;;5121128;28;20043;-50
2022/05/22 14:33:59;;;;;;;3.03;1.20;;;;;;;;;;5102000;28;20134;-50
2022/05/22 14:36:28;;;;;;;4.30;2.08;;;;;;;;;;5120004;28;20168;-49
2022/05/22 14:38:57;;;;;;;3.05;0.88;;;;;;;;;;5115311;28;20051;-44
2022/05/22 14:41:28;;;;;;;2.67;1.10;;;;;;;;;;5119804;28;20134;-49
2022/05/22 14:43:57;;;;;;;1.52;0.45;;;;;;;;;;5121323;27;20142;-45
2022/05/22 14:46:32;;;;;;;4.07;1.27;;;;;;;;;;5124858;27;20443;-52
2022/05/22 14:49:01;;;;;;;1.92;1.00;;;;;;;;;;5124098;27;20044;-50
2022/05/22 14:51:39;;;;;;;3.03;1.45;;;;;;;;;;5116634;27;20051;-50
2022/05/22 14:54:23;;;;;;;2.50;1.48;;;;;;;;;;5092098;27;20062;-46
2022/05/22 14:56:51;;;;;;;2.70;1.10;;;;;;;;;;5120752;27;20043;-50
2022/05/22 14:59:18;;;;;;;4.57;0.70;;;;;;;;;;5111687;27;20134;-50
2022/05/22 15:01:46;;;;;;;3.55;1.42;;;;;;;;;;5098640;27;20078;-49